sensor_id;sensor_type;location;lat;lon;timestamp;P1;durP1;ratioP1;P2;durP2;ratioP2
44816;SDS011;30529;53.570;9.964;2023-02-01T00:00:10;19.67;;;3.97;;
44816;SDS011;30529;53.570;9.964;2023-02-01T00:02:38;20.13;;;3.73;;
44816;SDS011;30529;53.570;9.964;2023-02-01T00:05:09;15.13;;;3.47;;
44816;SDS011;30529;53.570;9.964;2023-02-01T00:07:36;17.27;;;3.83;;
44816;SDS011;30529;53.570;9.964;2023-02-01T00:10:03;24.47;;;4.17;;
44816;SDS011;30529;53.570;9.964;2023-02-01T00:12:30;19.70;;;4.10;;
44816;SDS011;30529;53.570;9.964;2023-02-01T00:14:57;19.40;;;4.23;;
44816;SDS011;30529;53.570;9.964;2023-02-01T00:17:23;25.20;;;4.90;;
44816;SDS011;30529;53.570;9.964;2023-02-01T00:19:49;26.27;;;4.73;;
44816;SDS011;30529;53.570;9.964;2023-02-01T00:22:15;21.73;;;4.83;;
44816;SDS011;30529;53.570;9.964;2023-02-01T00:24:41;21.00;;;4.70;;
44816;SDS011;30529;53.570;9.964;2023-02-01T00:27:07;33.77;;;6.10;;
44816;SDS011;30529;53.570;9.964;2023-02-01T00:29:33;21.50;;;4.67;;
44816;SDS011;30529;53.570;9.964;2023-02-01T00:31:59;16.53;;;3.63;;
44816;SDS011;30529;53.570;9.964;2023-02-01T00:34:25;24.07;;;4.57;;
44816;SDS011;30529;53.570;9.964;2023-02-01T00:36:51;21.67;;;5.47;;
44816;SDS011;30529;53.570;9.964;2023-02-01T00:39:17;16.87;;;4.27;;
44816;SDS011;30529;53.570;9.964;2023-02-01T00:41:43;16.67;;;3.97;;
44816;SDS011;30529;53.570;9.964;2023-02-01T00:44:09;31.90;;;5.93;;
44816;SDS011;30529;53.570;9.964;2023-02-01T00:46:36;16.77;;;4.63;;
44816;SDS011;30529;53.570;9.964;2023-02-01T00:49:02;25.60;;;4.30;;
44816;SDS011;30529;53.570;9.964;2023-02-01T00:51:28;18.50;;;3.93;;
44816;SDS011;30529;53.570;9.964;2023-02-01T00:53:55;21.40;;;5.43;;
44816;SDS011;30529;53.570;9.964;2023-02-01T00:56:22;25.03;;;4.97;;
44816;SDS011;30529;53.570;9.964;2023-02-01T00:58:48;19.53;;;4.13;;
44816;SDS011;30529;53.570;9.964;2023-02-01T01:01:18;20.53;;;4.37;;
44816;SDS011;30529;53.570;9.964;2023-02-01T01:03:47;29.50;;;6.80;;
44816;SDS011;30529;53.570;9.964;2023-02-01T01:06:17;26.03;;;4.40;;
44816;SDS011;30529;53.570;9.964;2023-02-01T01:08:48;27.53;;;5.90;;
44816;SDS011;30529;53.570;9.964;2023-02-01T01:11:17;25.97;;;5.93;;
44816;SDS011;30529;53.570;9.964;2023-02-01T01:13:48;28.73;;;6.63;;
44816;SDS011;30529;53.570;9.964;2023-02-01T01:16:15;27.07;;;4.97;;
44816;SDS011;30529;53.570;9.964;2023-02-01T01:18:43;21.93;;;4.80;;
44816;SDS011;30529;53.570;9.964;2023-02-01T01:21:12;25.20;;;4.90;;
44816;SDS011;30529;53.570;9.964;2023-02-01T01:23:39;21.53;;;5.07;;
44816;SDS011;30529;53.570;9.964;2023-02-01T01:26:09;29.53;;;4.17;;
44816;SDS011;30529;53.570;9.964;2023-02-01T01:28:38;19.00;;;4.37;;
44816;SDS011;30529;53.570;9.964;2023-02-01T01:31:07;29.27;;;6.00;;
44816;SDS011;30529;53.570;9.964;2023-02-01T01:33:35;30.53;;;5.57;;
44816;SDS011;30529;53.570;9.964;2023-02-01T01:36:01;26.13;;;5.67;;
44816;SDS011;30529;53.570;9.964;2023-02-01T01:38:29;25.43;;;4.73;;
44816;SDS011;30529;53.570;9.964;2023-02-01T01:40:55;21.43;;;5.73;;
44816;SDS011;30529;53.570;9.964;2023-02-01T01:43:21;21.07;;;4.30;;
44816;SDS011;30529;53.570;9.964;2023-02-01T01:45:48;23.93;;;4.57;;
44816;SDS011;30529;53.570;9.964;2023-02-01T01:48:25;30.07;;;4.60;;
44816;SDS011;30529;53.570;9.964;2023-02-01T01:50:56;24.10;;;4.87;;
44816;SDS011;30529;53.570;9.964;2023-02-01T01:53:28;24.13;;;5.20;;
44816;SDS011;30529;53.570;9.964;2023-02-01T01:55:58;28.60;;;5.03;;
44816;SDS011;30529;53.570;9.964;2023-02-01T01:58:26;27.77;;;4.87;;
44816;SDS011;30529;53.570;9.964;2023-02-01T02:00:54;33.53;;;5.13;;
44816;SDS011;30529;53.570;9.964;2023-02-01T02:03:26;27.67;;;4.80;;
44816;SDS011;30529;53.570;9.964;2023-02-01T02:05:59;27.97;;;4.20;;
44816;SDS011;30529;53.570;9.964;2023-02-01T02:08:28;24.00;;;5.40;;
44816;SDS011;30529;53.570;9.964;2023-02-01T02:10:54;31.27;;;4.63;;
44816;SDS011;30529;53.570;9.964;2023-02-01T02:13:37;26.87;;;5.07;;
44816;SDS011;30529;53.570;9.964;2023-02-01T02:19:08;20.83;;;5.23;;
44816;SDS011;30529;53.570;9.964;2023-02-01T02:30:02;29.23;;;5.80;;
44816;SDS011;30529;53.570;9.964;2023-02-01T02:35:41;26.57;;;5.37;;
44816;SDS011;30529;53.570;9.964;2023-02-01T02:43:43;27.57;;;4.67;;
44816;SDS011;30529;53.570;9.964;2023-02-01T02:46:33;27.87;;;6.40;;
44816;SDS011;30529;53.570;9.964;2023-02-01T02:49:23;27.10;;;4.77;;
44816;SDS011;30529;53.570;9.964;2023-02-01T02:51:55;19.33;;;4.77;;
44816;SDS011;30529;53.570;9.964;2023-02-01T02:54:53;24.70;;;5.47;;
44816;SDS011;30529;53.570;9.964;2023-02-01T02:57:29;26.33;;;5.30;;
44816;SDS011;30529;53.570;9.964;2023-02-01T03:00:18;26.00;;;6.30;;
44816;SDS011;30529;53.570;9.964;2023-02-01T03:03:05;25.90;;;4.47;;
44816;SDS011;30529;53.570;9.964;2023-02-01T03:05:51;23.47;;;5.50;;
44816;SDS011;30529;53.570;9.964;2023-02-01T03:13:31;29.70;;;4.70;;
44816;SDS011;30529;53.570;9.964;2023-02-01T03:24:08;23.73;;;6.93;;
44816;SDS011;30529;53.570;9.964;2023-02-01T03:27:01;25.63;;;5.13;;
44816;SDS011;30529;53.570;9.964;2023-02-01T03:29:41;19.10;;;3.83;;
44816;SDS011;30529;53.570;9.964;2023-02-01T03:32:13;17.07;;;2.77;;
44816;SDS011;30529;53.570;9.964;2023-02-01T03:34:39;9.53;;;2.43;;
44816;SDS011;30529;53.570;9.964;2023-02-01T03:37:06;10.37;;;2.63;;
44816;SDS011;30529;53.570;9.964;2023-02-01T03:39:38;12.83;;;3.13;;
44816;SDS011;30529;53.570;9.964;2023-02-01T03:42:16;11.33;;;3.10;;
44816;SDS011;30529;53.570;9.964;2023-02-01T03:44:54;13.10;;;3.10;;
44816;SDS011;30529;53.570;9.964;2023-02-01T03:47:29;9.97;;;2.47;;
44816;SDS011;30529;53.570;9.964;2023-02-01T03:50:00;12.57;;;2.97;;
44816;SDS011;30529;53.570;9.964;2023-02-01T03:52:32;16.23;;;3.23;;
44816;SDS011;30529;53.570;9.964;2023-02-01T03:55:05;12.80;;;3.33;;
44816;SDS011;30529;53.570;9.964;2023-02-01T03:57:34;14.40;;;3.10;;
44816;SDS011;30529;53.570;9.964;2023-02-01T04:00:07;17.07;;;3.83;;
44816;SDS011;30529;53.570;9.964;2023-02-01T04:02:35;17.30;;;4.20;;
44816;SDS011;30529;53.570;9.964;2023-02-01T04:05:01;12.20;;;2.90;;
44816;SDS011;30529;53.570;9.964;2023-02-01T04:07:27;15.10;;;2.90;;
44816;SDS011;30529;53.570;9.964;2023-02-01T04:09:53;12.03;;;2.87;;
44816;SDS011;30529;53.570;9.964;2023-02-01T04:12:19;18.30;;;3.10;;
44816;SDS011;30529;53.570;9.964;2023-02-01T04:14:45;17.50;;;3.10;;
44816;SDS011;30529;53.570;9.964;2023-02-01T04:17:11;19.07;;;3.30;;
44816;SDS011;30529;53.570;9.964;2023-02-01T04:19:37;11.23;;;2.90;;
44816;SDS011;30529;53.570;9.964;2023-02-01T04:22:03;16.03;;;2.70;;
44816;SDS011;30529;53.570;9.964;2023-02-01T04:24:29;18.73;;;3.47;;
44816;SDS011;30529;53.570;9.964;2023-02-01T04:26:55;12.47;;;3.20;;
44816;SDS011;30529;53.570;9.964;2023-02-01T04:29:21;12.50;;;3.37;;
44816;SDS011;30529;53.570;9.964;2023-02-01T04:31:47;14.53;;;2.80;;
44816;SDS011;30529;53.570;9.964;2023-02-01T04:34:14;11.10;;;2.67;;
44816;SDS011;30529;53.570;9.964;2023-02-01T04:36:41;12.70;;;2.93;;
44816;SDS011;30529;53.570;9.964;2023-02-01T04:39:08;10.00;;;2.80;;
44816;SDS011;30529;53.570;9.964;2023-02-01T04:41:35;10.03;;;3.07;;
44816;SDS011;30529;53.570;9.964;2023-02-01T04:44:01;14.43;;;2.77;;
44816;SDS011;30529;53.570;9.964;2023-02-01T04:46:27;12.03;;;3.07;;
44816;SDS011;30529;53.570;9.964;2023-02-01T04:48:53;13.37;;;2.40;;
44816;SDS011;30529;53.570;9.964;2023-02-01T04:51:19;12.20;;;2.60;;
44816;SDS011;30529;53.570;9.964;2023-02-01T04:53:45;8.50;;;2.03;;
44816;SDS011;30529;53.570;9.964;2023-02-01T04:56:10;8.83;;;3.00;;
44816;SDS011;30529;53.570;9.964;2023-02-01T04:58:36;9.37;;;2.00;;
44816;SDS011;30529;53.570;9.964;2023-02-01T05:01:03;6.20;;;2.37;;
44816;SDS011;30529;53.570;9.964;2023-02-01T05:03:31;6.23;;;1.33;;
44816;SDS011;30529;53.570;9.964;2023-02-01T05:05:58;7.77;;;1.37;;
44816;SDS011;30529;53.570;9.964;2023-02-01T05:08:24;4.33;;;1.37;;
44816;SDS011;30529;53.570;9.964;2023-02-01T05:10:51;3.90;;;1.10;;
44816;SDS011;30529;53.570;9.964;2023-02-01T05:13:18;3.57;;;1.03;;
44816;SDS011;30529;53.570;9.964;2023-02-01T05:16:02;2.27;;;0.80;;
44816;SDS011;30529;53.570;9.964;2023-02-01T05:18:29;2.43;;;0.80;;
44816;SDS011;30529;53.570;9.964;2023-02-01T05:20:55;2.43;;;0.87;;
44816;SDS011;30529;53.570;9.964;2023-02-01T05:23:21;1.60;;;0.70;;
44816;SDS011;30529;53.570;9.964;2023-02-01T05:25:47;3.50;;;0.90;;
44816;SDS011;30529;53.570;9.964;2023-02-01T05:28:13;2.67;;;0.60;;
44816;SDS011;30529;53.570;9.964;2023-02-01T05:30:39;3.23;;;1.07;;
44816;SDS011;30529;53.570;9.964;2023-02-01T05:33:05;2.13;;;0.93;;
44816;SDS011;30529;53.570;9.964;2023-02-01T05:35:31;2.90;;;0.87;;
44816;SDS011;30529;53.570;9.964;2023-02-01T05:37:57;2.67;;;0.70;;
44816;SDS011;30529;53.570;9.964;2023-02-01T05:40:23;2.47;;;0.83;;
44816;SDS011;30529;53.570;9.964;2023-02-01T05:42:49;2.23;;;0.80;;
44816;SDS011;30529;53.570;9.964;2023-02-01T05:45:15;1.20;;;0.73;;
44816;SDS011;30529;53.570;9.964;2023-02-01T05:47:41;2.97;;;0.80;;
44816;SDS011;30529;53.570;9.964;2023-02-01T05:50:07;3.17;;;1.10;;
44816;SDS011;30529;53.570;9.964;2023-02-01T05:52:33;1.57;;;0.60;;
44816;SDS011;30529;53.570;9.964;2023-02-01T05:54:59;1.90;;;0.70;;
44816;SDS011;30529;53.570;9.964;2023-02-01T05:57:25;2.33;;;0.70;;
44816;SDS011;30529;53.570;9.964;2023-02-01T05:59:51;1.03;;;0.60;;
44816;SDS011;30529;53.570;9.964;2023-02-01T06:02:17;2.40;;;0.50;;
44816;SDS011;30529;53.570;9.964;2023-02-01T06:04:43;2.77;;;0.80;;
44816;SDS011;30529;53.570;9.964;2023-02-01T06:07:09;1.40;;;0.70;;
44816;SDS011;30529;53.570;9.964;2023-02-01T06:09:36;1.40;;;0.63;;
44816;SDS011;30529;53.570;9.964;2023-02-01T06:12:02;1.90;;;0.70;;
44816;SDS011;30529;53.570;9.964;2023-02-01T06:14:29;3.27;;;1.20;;
44816;SDS011;30529;53.570;9.964;2023-02-01T06:16:55;4.30;;;1.10;;
44816;SDS011;30529;53.570;9.964;2023-02-01T06:19:22;4.77;;;1.03;;
44816;SDS011;30529;53.570;9.964;2023-02-01T06:21:48;3.17;;;0.80;;
44816;SDS011;30529;53.570;9.964;2023-02-01T06:24:14;4.73;;;1.20;;
44816;SDS011;30529;53.570;9.964;2023-02-01T06:26:40;5.20;;;1.17;;
44816;SDS011;30529;53.570;9.964;2023-02-01T06:29:09;5.93;;;1.17;;
44816;SDS011;30529;53.570;9.964;2023-02-01T06:31:35;5.47;;;1.33;;
44816;SDS011;30529;53.570;9.964;2023-02-01T06:34:01;4.40;;;1.47;;
44816;SDS011;30529;53.570;9.964;2023-02-01T06:36:28;7.30;;;1.33;;
44816;SDS011;30529;53.570;9.964;2023-02-01T06:38:57;9.37;;;1.87;;
44816;SDS011;30529;53.570;9.964;2023-02-01T06:41:25;7.40;;;1.47;;
44816;SDS011;30529;53.570;9.964;2023-02-01T06:43:51;6.50;;;2.00;;
44816;SDS011;30529;53.570;9.964;2023-02-01T06:46:17;6.43;;;1.80;;
44816;SDS011;30529;53.570;9.964;2023-02-01T06:48:43;5.10;;;1.87;;
44816;SDS011;30529;53.570;9.964;2023-02-01T06:51:21;7.33;;;1.50;;
44816;SDS011;30529;53.570;9.964;2023-02-01T06:53:49;9.40;;;2.97;;
44816;SDS011;30529;53.570;9.964;2023-02-01T06:56:15;8.17;;;2.70;;
44816;SDS011;30529;53.570;9.964;2023-02-01T06:58:41;13.63;;;2.43;;
44816;SDS011;30529;53.570;9.964;2023-02-01T07:01:08;11.70;;;2.30;;
44816;SDS011;30529;53.570;9.964;2023-02-01T07:03:35;10.70;;;2.47;;
44816;SDS011;30529;53.570;9.964;2023-02-01T07:06:01;9.63;;;2.00;;
44816;SDS011;30529;53.570;9.964;2023-02-01T07:08:29;10.13;;;1.90;;
44816;SDS011;30529;53.570;9.964;2023-02-01T07:10:56;14.10;;;2.83;;
44816;SDS011;30529;53.570;9.964;2023-02-01T07:13:26;13.40;;;2.27;;
44816;SDS011;30529;53.570;9.964;2023-02-01T07:15:52;13.17;;;3.03;;
44816;SDS011;30529;53.570;9.964;2023-02-01T07:18:18;10.90;;;2.60;;
44816;SDS011;30529;53.570;9.964;2023-02-01T07:20:49;16.17;;;3.07;;
44816;SDS011;30529;53.570;9.964;2023-02-01T07:23:15;21.43;;;3.23;;
44816;SDS011;30529;53.570;9.964;2023-02-01T07:25:41;21.57;;;3.40;;
44816;SDS011;30529;53.570;9.964;2023-02-01T07:28:07;19.07;;;3.63;;
44816;SDS011;30529;53.570;9.964;2023-02-01T07:30:33;14.90;;;4.00;;
44816;SDS011;30529;53.570;9.964;2023-02-01T07:32:59;23.77;;;4.30;;
44816;SDS011;30529;53.570;9.964;2023-02-01T07:35:27;28.27;;;3.63;;
44816;SDS011;30529;53.570;9.964;2023-02-01T07:37:53;18.30;;;4.20;;
44816;SDS011;30529;53.570;9.964;2023-02-01T07:40:19;23.53;;;3.93;;
44816;SDS011;30529;53.570;9.964;2023-02-01T07:42:50;16.93;;;3.43;;
44816;SDS011;30529;53.570;9.964;2023-02-01T07:45:16;22.20;;;5.63;;
44816;SDS011;30529;53.570;9.964;2023-02-01T07:47:42;24.90;;;4.63;;
44816;SDS011;30529;53.570;9.964;2023-02-01T07:50:08;21.70;;;4.03;;
44816;SDS011;30529;53.570;9.964;2023-02-01T07:52:34;22.57;;;3.60;;
44816;SDS011;30529;53.570;9.964;2023-02-01T07:55:00;18.77;;;4.50;;
44816;SDS011;30529;53.570;9.964;2023-02-01T07:57:26;15.67;;;4.27;;
44816;SDS011;30529;53.570;9.964;2023-02-01T07:59:52;18.00;;;4.40;;
44816;SDS011;30529;53.570;9.964;2023-02-01T08:02:37;25.47;;;4.67;;
44816;SDS011;30529;53.570;9.964;2023-02-01T08:05:03;29.53;;;4.67;;
44816;SDS011;30529;53.570;9.964;2023-02-01T08:07:31;26.87;;;5.63;;
44816;SDS011;30529;53.570;9.964;2023-02-01T08:09:57;22.77;;;3.80;;
44816;SDS011;30529;53.570;9.964;2023-02-01T08:12:23;28.03;;;4.53;;
44816;SDS011;30529;53.570;9.964;2023-02-01T08:14:49;23.10;;;4.63;;
44816;SDS011;30529;53.570;9.964;2023-02-01T08:17:15;22.13;;;4.53;;
44816;SDS011;30529;53.570;9.964;2023-02-01T08:19:41;27.80;;;4.67;;
44816;SDS011;30529;53.570;9.964;2023-02-01T08:22:07;20.03;;;3.57;;
44816;SDS011;30529;53.570;9.964;2023-02-01T08:24:33;25.20;;;4.60;;
44816;SDS011;30529;53.570;9.964;2023-02-01T08:27:00;14.83;;;3.57;;
44816;SDS011;30529;53.570;9.964;2023-02-01T08:29:27;19.83;;;4.70;;
44816;SDS011;30529;53.570;9.964;2023-02-01T08:31:53;19.77;;;3.67;;
44816;SDS011;30529;53.570;9.964;2023-02-01T08:34:20;19.43;;;4.17;;
44816;SDS011;30529;53.570;9.964;2023-02-01T08:36:46;12.87;;;3.00;;
44816;SDS011;30529;53.570;9.964;2023-02-01T08:39:12;15.03;;;3.37;;
44816;SDS011;30529;53.570;9.964;2023-02-01T08:41:38;11.87;;;3.10;;
44816;SDS011;30529;53.570;9.964;2023-02-01T08:44:04;18.63;;;3.70;;
44816;SDS011;30529;53.570;9.964;2023-02-01T08:46:30;22.33;;;4.07;;
44816;SDS011;30529;53.570;9.964;2023-02-01T08:48:56;13.97;;;2.80;;
44816;SDS011;30529;53.570;9.964;2023-02-01T08:51:23;19.57;;;3.80;;
44816;SDS011;30529;53.570;9.964;2023-02-01T08:53:49;14.17;;;3.00;;
44816;SDS011;30529;53.570;9.964;2023-02-01T08:56:19;16.77;;;3.23;;
44816;SDS011;30529;53.570;9.964;2023-02-01T08:58:45;20.30;;;3.97;;
44816;SDS011;30529;53.570;9.964;2023-02-01T09:01:12;14.27;;;3.63;;
44816;SDS011;30529;53.570;9.964;2023-02-01T09:03:40;14.83;;;3.63;;
44816;SDS011;30529;53.570;9.964;2023-02-01T09:06:08;21.60;;;4.90;;
44816;SDS011;30529;53.570;9.964;2023-02-01T09:08:37;14.73;;;4.40;;
44816;SDS011;30529;53.570;9.964;2023-02-01T09:11:08;19.73;;;4.00;;
44816;SDS011;30529;53.570;9.964;2023-02-01T09:13:37;19.80;;;4.23;;
44816;SDS011;30529;53.570;9.964;2023-02-01T09:16:03;16.83;;;3.80;;
44816;SDS011;30529;53.570;9.964;2023-02-01T09:18:29;19.57;;;4.00;;
44816;SDS011;30529;53.570;9.964;2023-02-01T09:20:55;23.77;;;4.80;;
44816;SDS011;30529;53.570;9.964;2023-02-01T09:23:22;17.87;;;4.20;;
44816;SDS011;30529;53.570;9.964;2023-02-01T09:25:47;18.77;;;3.23;;
44816;SDS011;30529;53.570;9.964;2023-02-01T09:28:17;17.57;;;4.70;;
44816;SDS011;30529;53.570;9.964;2023-02-01T09:30:44;19.27;;;4.50;;
44816;SDS011;30529;53.570;9.964;2023-02-01T09:33:10;21.43;;;4.53;;
44816;SDS011;30529;53.570;9.964;2023-02-01T09:35:36;16.03;;;3.67;;
44816;SDS011;30529;53.570;9.964;2023-02-01T09:38:03;22.77;;;4.57;;
44816;SDS011;30529;53.570;9.964;2023-02-01T09:40:29;22.23;;;4.50;;
44816;SDS011;30529;53.570;9.964;2023-02-01T09:45:40;16.57;;;3.73;;
44816;SDS011;30529;53.570;9.964;2023-02-01T09:48:23;30.03;;;3.87;;
44816;SDS011;30529;53.570;9.964;2023-02-01T09:50:55;19.60;;;4.73;;
44816;SDS011;30529;53.570;9.964;2023-02-01T09:53:25;17.93;;;3.80;;
44816;SDS011;30529;53.570;9.964;2023-02-01T09:56:04;25.40;;;4.53;;
44816;SDS011;30529;53.570;9.964;2023-02-01T09:58:42;14.87;;;3.97;;
44816;SDS011;30529;53.570;9.964;2023-02-01T10:01:30;16.40;;;3.10;;
44816;SDS011;30529;53.570;9.964;2023-02-01T10:04:05;22.80;;;4.03;;
44816;SDS011;30529;53.570;9.964;2023-02-01T10:06:43;23.67;;;4.83;;
44816;SDS011;30529;53.570;9.964;2023-02-01T10:18:06;25.40;;;4.57;;
44816;SDS011;30529;53.570;9.964;2023-02-01T10:23:34;22.80;;;3.93;;
44816;SDS011;30529;53.570;9.964;2023-02-01T10:26:22;19.63;;;3.43;;
44816;SDS011;30529;53.570;9.964;2023-02-01T10:28:57;18.37;;;3.60;;
44816;SDS011;30529;53.570;9.964;2023-02-01T10:31:26;20.80;;;3.90;;
44816;SDS011;30529;53.570;9.964;2023-02-01T10:33:56;24.30;;;6.43;;
44816;SDS011;30529;53.570;9.964;2023-02-01T10:36:31;15.30;;;3.67;;
44816;SDS011;30529;53.570;9.964;2023-02-01T10:39:02;12.77;;;3.60;;
44816;SDS011;30529;53.570;9.964;2023-02-01T10:41:35;14.33;;;3.43;;
44816;SDS011;30529;53.570;9.964;2023-02-01T10:44:06;16.30;;;4.57;;
44816;SDS011;30529;53.570;9.964;2023-02-01T10:46:39;18.23;;;3.53;;
44816;SDS011;30529;53.570;9.964;2023-02-01T10:49:08;13.83;;;3.30;;
44816;SDS011;30529;53.570;9.964;2023-02-01T10:51:44;20.47;;;3.93;;
44816;SDS011;30529;53.570;9.964;2023-02-01T10:54:36;15.00;;;3.37;;
44816;SDS011;30529;53.570;9.964;2023-02-01T10:57:07;15.57;;;4.07;;
44816;SDS011;30529;53.570;9.964;2023-02-01T10:59:34;18.47;;;4.20;;
44816;SDS011;30529;53.570;9.964;2023-02-01T11:02:05;15.33;;;3.17;;
44816;SDS011;30529;53.570;9.964;2023-02-01T11:04:41;16.07;;;4.00;;
44816;SDS011;30529;53.570;9.964;2023-02-01T11:07:13;23.30;;;4.23;;
44816;SDS011;30529;53.570;9.964;2023-02-01T11:09:52;16.83;;;3.77;;
44816;SDS011;30529;53.570;9.964;2023-02-01T11:12:31;21.80;;;3.77;;
44816;SDS011;30529;53.570;9.964;2023-02-01T11:15:01;15.30;;;4.10;;
44816;SDS011;30529;53.570;9.964;2023-02-01T11:17:39;16.30;;;3.73;;
44816;SDS011;30529;53.570;9.964;2023-02-01T11:20:16;21.70;;;3.87;;
44816;SDS011;30529;53.570;9.964;2023-02-01T11:22:48;17.60;;;4.40;;
44816;SDS011;30529;53.570;9.964;2023-02-01T11:25:19;16.10;;;4.03;;
44816;SDS011;30529;53.570;9.964;2023-02-01T11:27:46;21.23;;;4.33;;
44816;SDS011;30529;53.570;9.964;2023-02-01T11:30:15;18.93;;;3.40;;
44816;SDS011;30529;53.570;9.964;2023-02-01T11:32:44;18.10;;;4.00;;
44816;SDS011;30529;53.570;9.964;2023-02-01T11:35:14;14.43;;;4.10;;
44816;SDS011;30529;53.570;9.964;2023-02-01T11:37:44;18.23;;;4.00;;
44816;SDS011;30529;53.570;9.964;2023-02-01T11:43:11;19.33;;;3.80;;
44816;SDS011;30529;53.570;9.964;2023-02-01T11:46:02;20.80;;;3.40;;
44816;SDS011;30529;53.570;9.964;2023-02-01T11:48:30;15.13;;;3.00;;
44816;SDS011;30529;53.570;9.964;2023-02-01T11:51:18;22.30;;;4.43;;
44816;SDS011;30529;53.570;9.964;2023-02-01T12:05:30;8.40;;;1.83;;
44816;SDS011;30529;53.570;9.964;2023-02-01T12:08:06;8.87;;;1.60;;
44816;SDS011;30529;53.570;9.964;2023-02-01T12:22:21;11.77;;;2.97;;
44816;SDS011;30529;53.570;9.964;2023-02-01T12:33:06;9.07;;;2.00;;
44816;SDS011;30529;53.570;9.964;2023-02-01T12:36:05;6.73;;;2.63;;
44816;SDS011;30529;53.570;9.964;2023-02-01T12:38:46;6.87;;;1.97;;
44816;SDS011;30529;53.570;9.964;2023-02-01T12:47:19;6.77;;;1.53;;
44816;SDS011;30529;53.570;9.964;2023-02-01T12:55:22;4.43;;;1.33;;
44816;SDS011;30529;53.570;9.964;2023-02-01T13:00:39;3.10;;;1.00;;
44816;SDS011;30529;53.570;9.964;2023-02-01T13:03:26;2.90;;;1.10;;
44816;SDS011;30529;53.570;9.964;2023-02-01T13:06:01;1.50;;;1.00;;
44816;SDS011;30529;53.570;9.964;2023-02-01T13:08:39;1.57;;;0.90;;
44816;SDS011;30529;53.570;9.964;2023-02-01T13:11:18;3.10;;;0.80;;
44816;SDS011;30529;53.570;9.964;2023-02-01T13:14:03;3.47;;;0.90;;
44816;SDS011;30529;53.570;9.964;2023-02-01T13:16:39;2.10;;;0.90;;
44816;SDS011;30529;53.570;9.964;2023-02-01T13:19:12;1.97;;;0.70;;
44816;SDS011;30529;53.570;9.964;2023-02-01T13:21:50;5.03;;;0.93;;
44816;SDS011;30529;53.570;9.964;2023-02-01T13:26:56;1.67;;;0.90;;
44816;SDS011;30529;53.570;9.964;2023-02-01T13:29:22;2.40;;;0.83;;
44816;SDS011;30529;53.570;9.964;2023-02-01T13:34:36;3.27;;;0.90;;
44816;SDS011;30529;53.570;9.964;2023-02-01T13:43:02;3.77;;;0.90;;
44816;SDS011;30529;53.570;9.964;2023-02-01T13:45:35;1.73;;;0.70;;
44816;SDS011;30529;53.570;9.964;2023-02-01T13:48:14;2.03;;;0.80;;
44816;SDS011;30529;53.570;9.964;2023-02-01T13:50:52;1.73;;;0.90;;
44816;SDS011;30529;53.570;9.964;2023-02-01T13:53:31;2.10;;;0.87;;
44816;SDS011;30529;53.570;9.964;2023-02-01T13:58:39;4.13;;;0.87;;
44816;SDS011;30529;53.570;9.964;2023-02-01T14:03:56;3.43;;;0.90;;
44816;SDS011;30529;53.570;9.964;2023-02-01T14:11:38;5.90;;;1.23;;
44816;SDS011;30529;53.570;9.964;2023-02-01T14:16:43;4.87;;;1.33;;
44816;SDS011;30529;53.570;9.964;2023-02-01T14:19:33;4.23;;;1.33;;
44816;SDS011;30529;53.570;9.964;2023-02-01T14:24:50;3.90;;;1.80;;
44816;SDS011;30529;53.570;9.964;2023-02-01T14:27:26;8.30;;;1.73;;
44816;SDS011;30529;53.570;9.964;2023-02-01T14:29:59;12.93;;;2.03;;
44816;SDS011;30529;53.570;9.964;2023-02-01T14:32:37;7.90;;;1.87;;
44816;SDS011;30529;53.570;9.964;2023-02-01T14:35:46;8.40;;;2.23;;
44816;SDS011;30529;53.570;9.964;2023-02-01T14:37:58;6.60;;;1.37;;
44816;SDS011;30529;53.570;9.964;2023-02-01T14:40:28;4.50;;;1.20;;
44816;SDS011;30529;53.570;9.964;2023-02-01T14:42:55;10.67;;;1.90;;
44816;SDS011;30529;53.570;9.964;2023-02-01T14:58:05;13.50;;;2.27;;
44816;SDS011;30529;53.570;9.964;2023-02-01T15:01:00;13.17;;;2.53;;
44816;SDS011;30529;53.570;9.964;2023-02-01T15:08:54;7.77;;;2.20;;
44816;SDS011;30529;53.570;9.964;2023-02-01T15:11:22;12.90;;;2.87;;
44816;SDS011;30529;53.570;9.964;2023-02-01T15:13:49;11.23;;;2.97;;
44816;SDS011;30529;53.570;9.964;2023-02-01T15:16:24;14.77;;;3.90;;
44816;SDS011;30529;53.570;9.964;2023-02-01T15:19:06;15.37;;;2.97;;
44816;SDS011;30529;53.570;9.964;2023-02-01T15:21:42;10.43;;;2.57;;
44816;SDS011;30529;53.570;9.964;2023-02-01T15:24:12;9.30;;;2.00;;
44816;SDS011;30529;53.570;9.964;2023-02-01T15:26:39;13.73;;;2.67;;
44816;SDS011;30529;53.570;9.964;2023-02-01T15:29:09;9.23;;;2.50;;
44816;SDS011;30529;53.570;9.964;2023-02-01T15:31:48;11.03;;;1.70;;
44816;SDS011;30529;53.570;9.964;2023-02-01T15:34:15;10.63;;;2.53;;
44816;SDS011;30529;53.570;9.964;2023-02-01T15:36:42;8.73;;;2.10;;
44816;SDS011;30529;53.570;9.964;2023-02-01T15:39:17;13.10;;;2.30;;
44816;SDS011;30529;53.570;9.964;2023-02-01T15:41:47;12.97;;;2.87;;
44816;SDS011;30529;53.570;9.964;2023-02-01T15:46:45;9.60;;;2.17;;
44816;SDS011;30529;53.570;9.964;2023-02-01T15:49:27;9.57;;;2.27;;
44816;SDS011;30529;53.570;9.964;2023-02-01T15:52:00;13.33;;;3.07;;
44816;SDS011;30529;53.570;9.964;2023-02-01T15:57:26;9.00;;;2.87;;
44816;SDS011;30529;53.570;9.964;2023-02-01T16:00:08;11.70;;;2.50;;
44816;SDS011;30529;53.570;9.964;2023-02-01T16:02:53;11.97;;;2.13;;
44816;SDS011;30529;53.570;9.964;2023-02-01T16:05:40;16.03;;;3.20;;
44816;SDS011;30529;53.570;9.964;2023-02-01T16:10:46;10.60;;;2.40;;
44816;SDS011;30529;53.570;9.964;2023-02-01T16:13:14;13.60;;;2.57;;
44816;SDS011;30529;53.570;9.964;2023-02-01T16:15:41;16.60;;;3.03;;
44816;SDS011;30529;53.570;9.964;2023-02-01T16:18:07;12.37;;;3.07;;
44816;SDS011;30529;53.570;9.964;2023-02-01T16:20:38;15.43;;;3.43;;
44816;SDS011;30529;53.570;9.964;2023-02-01T16:23:06;11.10;;;2.60;;
44816;SDS011;30529;53.570;9.964;2023-02-01T16:25:34;17.97;;;3.30;;
44816;SDS011;30529;53.570;9.964;2023-02-01T16:28:00;18.43;;;4.23;;
44816;SDS011;30529;53.570;9.964;2023-02-01T16:30:27;20.67;;;4.50;;
44816;SDS011;30529;53.570;9.964;2023-02-01T16:32:53;17.97;;;4.03;;
44816;SDS011;30529;53.570;9.964;2023-02-01T16:38:04;17.53;;;4.27;;
44816;SDS011;30529;53.570;9.964;2023-02-01T16:40:38;17.83;;;4.03;;
44816;SDS011;30529;53.570;9.964;2023-02-01T16:43:15;17.90;;;4.07;;
44816;SDS011;30529;53.570;9.964;2023-02-01T16:45:41;18.27;;;3.73;;
44816;SDS011;30529;53.570;9.964;2023-02-01T16:48:10;25.40;;;5.33;;
44816;SDS011;30529;53.570;9.964;2023-02-01T16:50:52;31.27;;;6.00;;
44816;SDS011;30529;53.570;9.964;2023-02-01T16:53:21;19.10;;;3.90;;
44816;SDS011;30529;53.570;9.964;2023-02-01T16:55:47;28.20;;;4.87;;
44816;SDS011;30529;53.570;9.964;2023-02-01T16:58:18;16.00;;;5.23;;
44816;SDS011;30529;53.570;9.964;2023-02-01T17:00:46;24.83;;;5.47;;
44816;SDS011;30529;53.570;9.964;2023-02-01T17:03:13;19.70;;;4.53;;
44816;SDS011;30529;53.570;9.964;2023-02-01T17:05:46;35.23;;;7.17;;
44816;SDS011;30529;53.570;9.964;2023-02-01T17:08:19;27.00;;;5.53;;
44816;SDS011;30529;53.570;9.964;2023-02-01T17:10:53;24.37;;;4.80;;
44816;SDS011;30529;53.570;9.964;2023-02-01T17:13:19;22.03;;;4.80;;
44816;SDS011;30529;53.570;9.964;2023-02-01T17:15:50;21.37;;;4.50;;
44816;SDS011;30529;53.570;9.964;2023-02-01T17:18:29;24.53;;;5.40;;
44816;SDS011;30529;53.570;9.964;2023-02-01T17:21:10;20.57;;;4.03;;
44816;SDS011;30529;53.570;9.964;2023-02-01T17:23:36;23.43;;;4.67;;
44816;SDS011;30529;53.570;9.964;2023-02-01T17:26:10;20.00;;;4.07;;
44816;SDS011;30529;53.570;9.964;2023-02-01T17:28:36;22.77;;;5.03;;